Time;durP1;ratioP1;P1;durP2;ratioP2;P2;SDS_P1;SDS_P2;PMS_P1;PMS_P2;Temp;Humidity;BMP_temperature;BMP_pressure;BME280_temperature;BME280_humidity;BME280_pressure;Samples;Min_cycle;Max_cycle;Signal;HPM_P1;HPM_P2
2023/08/06 00:01:37;;;;;;;5.55;4.70;;;14.00;99.90;;;;;;5083497;27;20555;-57
2023/08/06 00:04:03;;;;;;;5.03;4.00;;;14.00;99.90;;;;;;5104561;28;20087;-58
2023/08/06 00:06:29;;;;;;;5.03;4.40;;;14.00;99.90;;;;;;5101495;28;20425;-57
2023/08/06 00:08:55;;;;;;;8.48;5.60;;;14.00;99.90;;;;;;5096371;28;20055;-57
2023/08/06 00:11:21;;;;;;;6.45;5.07;;;14.00;99.90;;;;;;5093477;28;20052;-57
2023/08/06 00:13:46;;;;;;;17.08;5.80;;;14.00;99.90;;;;;;5083069;28;20060;-59
2023/08/06 00:16:13;;;;;;;7.97;6.30;;;14.00;99.90;;;;;;5082085;28;20147;-64
2023/08/06 00:18:39;;;;;;;6.30;5.38;;;14.10;99.90;;;;;;5096119;28;20044;-58
2023/08/06 00:21:05;;;;;;;7.72;5.85;;;14.10;99.90;;;;;;5092160;28;20062;-58
2023/08/06 00:23:31;;;;;;;7.85;5.70;;;14.10;99.90;;;;;;5089816;28;20064;-58
2023/08/06 00:25:56;;;;;;;9.80;5.47;;;14.10;99.90;;;;;;5027405;28;1132926;-63
2023/08/06 00:28:22;;;;;;;6.75;6.03;;;14.10;99.90;;;;;;5088407;28;20072;-64
2023/08/06 00:30:55;;;;;;;7.45;6.57;;;14.10;99.90;;;;;;5092141;28;20052;-64
2023/08/06 00:33:21;;;;;;;6.53;5.43;;;14.10;99.90;;;;;;5099648;28;20154;-58
2023/08/06 00:35:47;;;;;;;7.72;5.88;;;14.00;99.90;;;;;;5103922;28;20087;-58
2023/08/06 00:38:13;;;;;;;7.97;6.00;;;14.10;99.90;;;;;;5095179;27;20150;-57
2023/08/06 00:40:39;;;;;;;7.93;6.90;;;14.00;99.90;;;;;;5075982;28;20134;-58
2023/08/06 00:43:04;;;;;;;8.02;6.15;;;14.00;99.90;;;;;;5060565;28;20052;-58
2023/08/06 00:45:33;;;;;;;9.13;6.88;;;14.00;99.90;;;;;;5074995;28;20059;-58
2023/08/06 00:47:59;;;;;;;8.23;6.45;;;14.00;99.90;;;;;;5095405;28;20501;-58
2023/08/06 00:50:25;;;;;;;9.70;6.93;;;14.10;99.90;;;;;;5092913;28;20398;-58
2023/08/06 00:52:52;;;;;;;7.32;6.63;;;14.10;99.90;;;;;;5095701;28;20077;-58
2023/08/06 00:55:18;;;;;;;8.57;7.13;;;14.00;99.90;;;;;;5090633;28;20513;-58
2023/08/06 00:57:43;;;;;;;8.43;7.53;;;14.10;99.90;;;;;;5084730;28;20135;-58
2023/08/06 01:00:11;;;;;;;7.93;6.95;;;14.00;99.90;;;;;;5083056;28;20048;-58
2023/08/06 01:02:37;;;;;;;9.95;7.68;;;14.00;99.90;;;;;;5089350;28;20090;-59
2023/08/06 01:05:04;;;;;;;8.73;7.82;;;14.00;99.90;;;;;;5052696;28;20052;-58
2023/08/06 01:07:57;;;;;;;10.50;8.68;;;14.00;99.90;;;;;;5087391;28;20489;-58
2023/08/06 01:10:57;;;;;;;9.20;7.82;;;14.10;99.90;;;;;;5067823;28;20063;-58
2023/08/06 01:13:49;;;;;;;9.52;8.18;;;14.00;99.90;;;;;;5095433;28;20051;-60
2023/08/06 01:16:20;;;;;;;10.18;8.20;;;14.00;99.90;;;;;;5081550;28;20078;-62
2023/08/06 01:18:49;;;;;;;11.55;8.75;;;14.00;99.90;;;;;;5095471;28;20826;-59
2023/08/06 01:21:18;;;;;;;10.57;9.45;;;14.00;99.90;;;;;;5086204;28;20064;-59
2023/08/06 01:23:46;;;;;;;9.32;8.32;;;14.00;99.90;;;;;;5086814;28;20077;-63
2023/08/06 01:26:28;;;;;;;12.07;9.02;;;14.00;99.90;;;;;;5101767;28;20513;-58
2023/08/06 01:29:10;;;;;;;13.48;9.95;;;14.30;99.90;;;;;;5091249;28;20071;-57
2023/08/06 01:31:37;;;;;;;12.05;8.55;;;14.00;99.90;;;;;;5092437;27;20465;-58
2023/08/06 01:34:10;;;;;;;10.45;9.35;;;14.00;99.90;;;;;;5083396;28;20055;-58
2023/08/06 01:36:36;;;;;;;10.43;9.32;;;14.00;99.90;;;;;;5086902;27;20063;-59
2023/08/06 01:39:02;;;;;;;12.05;9.57;;;14.00;99.90;;;;;;5102852;28;20063;-58
2023/08/06 01:41:28;;;;;;;11.43;9.90;;;14.00;99.90;;;;;;5100262;28;20417;-57
2023/08/06 01:43:53;;;;;;;11.70;10.50;;;14.10;99.90;;;;;;5094396;28;20052;-57
2023/08/06 01:46:19;;;;;;;13.75;9.52;;;14.00;99.90;;;;;;5091933;28;20169;-60
2023/08/06 01:48:45;;;;;;;9.73;8.70;;;14.00;99.90;;;;;;5090892;28;20064;-61
2023/08/06 01:51:10;;;;;;;12.60;9.93;;;14.10;99.90;;;;;;5072083;28;20494;-57
2023/08/06 01:53:36;;;;;;;12.10;9.48;;;14.10;99.90;;;;;;5062269;28;20064;-60
2023/08/06 01:56:02;;;;;;;11.80;9.30;;;14.10;99.90;;;;;;5097684;28;20101;-59
2023/08/06 01:58:27;;;;;;;13.63;10.10;;;14.10;99.90;;;;;;5100216;28;20056;-61
2023/08/06 02:00:53;;;;;;;12.48;10.70;;;14.10;99.90;;;;;;5078668;28;20138;-58
2023/08/06 02:03:19;;;;;;;11.68;10.20;;;14.10;99.90;;;;;;5067619;28;20083;-58
2023/08/06 02:05:45;;;;;;;11.20;9.98;;;14.10;99.90;;;;;;5083007;28;20138;-62
2023/08/06 02:08:11;;;;;;;17.63;12.07;;;14.10;99.90;;;;;;5073465;28;20736;-63
2023/08/06 02:10:37;;;;;;;12.10;10.25;;;14.10;99.90;;;;;;5093067;28;20055;-59
2023/08/06 02:13:02;;;;;;;12.75;9.75;;;14.10;99.90;;;;;;5093691;28;20514;-58
2023/08/06 02:15:28;;;;;;;16.38;9.88;;;14.10;99.90;;;;;;5093232;28;20398;-62
2023/08/06 02:17:54;;;;;;;13.32;11.20;;;14.20;99.90;;;;;;5079816;28;20052;-61
2023/08/06 02:20:19;;;;;;;14.43;11.10;;;14.10;99.90;;;;;;5076095;28;20059;-61
2023/08/06 02:22:45;;;;;;;12.02;10.27;;;14.10;99.90;;;;;;5088923;28;20792;-59
2023/08/06 02:25:11;;;;;;;9.80;8.77;;;14.10;99.90;;;;;;5097608;28;20063;-57
2023/08/06 02:27:37;;;;;;;11.20;9.85;;;14.10;99.90;;;;;;5094531;28;20052;-59
2023/08/06 02:30:04;;;;;;;11.15;9.90;;;14.10;99.90;;;;;;5081894;28;20058;-58
2023/08/06 02:32:31;;;;;;;12.27;10.15;;;14.10;99.90;;;;;;5078708;28;20056;-57
2023/08/06 02:34:57;;;;;;;12.02;9.20;;;14.10;99.90;;;;;;5081796;28;20104;-57
2023/08/06 02:37:23;;;;;;;11.05;9.07;;;14.10;99.90;;;;;;5080782;28;20130;-57
2023/08/06 02:39:48;;;;;;;12.25;10.38;;;14.10;99.90;;;;;;5079991;28;20510;-57
2023/08/06 02:42:14;;;;;;;12.63;9.30;;;14.20;99.90;;;;;;5081490;28;20052;-58
2023/08/06 02:44:40;;;;;;;10.35;9.30;;;14.10;99.90;;;;;;5078118;28;20060;-58
2023/08/06 02:47:06;;;;;;;9.63;8.60;;;14.20;99.90;;;;;;5097702;28;20139;-58
2023/08/06 02:49:31;;;;;;;8.65;7.65;;;14.20;99.90;;;;;;5091578;28;20489;-57
2023/08/06 02:51:57;;;;;;;17.52;9.38;;;14.20;99.90;;;;;;5088532;28;20068;-57
2023/08/06 02:54:23;;;;;;;10.30;8.32;;;14.20;99.90;;;;;;5087531;28;20059;-57
2023/08/06 02:56:48;;;;;;;12.32;8.23;;;14.20;99.90;;;;;;5080421;28;20112;-57
2023/08/06 02:59:14;;;;;;;13.20;7.40;;;14.20;99.90;;;;;;5088843;28;20688;-57
2023/08/06 03:01:40;;;;;;;9.93;8.35;;;14.20;99.90;;;;;;5098361;28;20505;-55
2023/08/06 03:06:32;;;;;;;10.13;8.23;;;14.10;99.90;;;;;;5084311;28;20680;-57
2023/08/06 03:08:58;;;;;;;8.07;7.28;;;14.10;99.90;;;;;;5077432;28;20708;-57
2023/08/06 03:11:23;;;;;;;7.63;5.88;;;14.10;99.90;;;;;;5063150;28;20078;-57
2023/08/06 03:13:49;;;;;;;9.20;7.05;;;14.10;99.90;;;;;;5091617;28;20055;-57
2023/08/06 03:16:15;;;;;;;7.22;6.53;;;14.10;99.90;;;;;;5075815;28;20588;-56
2023/08/06 03:18:40;;;;;;;10.23;7.30;;;14.10;99.90;;;;;;5093957;28;20136;-57
2023/08/06 03:23:57;;;;;;;6.57;5.90;;;14.10;99.90;;;;;;5088942;28;20335;-57
2023/08/06 03:26:23;;;;;;;6.40;5.80;;;14.00;99.90;;;;;;5077401;28;20665;-57
2023/08/06 03:28:48;;;;;;;9.60;5.90;;;14.10;99.90;;;;;;5094583;28;20101;-58
2023/08/06 03:31:14;;;;;;;8.85;5.85;;;14.10;99.90;;;;;;5083228;28;20085;-57
2023/08/06 03:33:40;;;;;;;6.72;5.93;;;14.10;99.90;;;;;;5084158;28;20871;-58
2023/08/06 03:36:06;;;;;;;6.00;5.40;;;14.10;99.90;;;;;;5085221;28;20056;-57
2023/08/06 03:38:31;;;;;;;6.05;5.40;;;14.10;99.90;;;;;;5075365;28;20201;-58
2023/08/06 03:40:57;;;;;;;7.13;6.22;;;14.10;99.90;;;;;;5105220;28;20059;-57
2023/08/06 03:43:23;;;;;;;8.85;6.18;;;14.10;99.90;;;;;;5083491;27;20146;-56
2023/08/06 03:45:48;;;;;;;8.13;6.72;;;14.10;99.90;;;;;;5096043;28;20130;-57
2023/08/06 03:48:14;;;;;;;6.57;5.80;;;14.10;99.90;;;;;;5103296;28;20054;-56
2023/08/06 03:50:40;;;;;;;9.25;6.32;;;14.10;99.90;;;;;;5087492;28;20509;-57
2023/08/06 03:53:10;;;;;;;10.52;7.50;;;14.10;99.90;;;;;;5096711;28;20142;-57
2023/08/06 03:55:36;;;;;;;8.68;6.68;;;14.10;99.90;;;;;;5107743;27;20141;-57
2023/08/06 03:58:01;;;;;;;7.53;6.63;;;14.10;99.90;;;;;;5099930;28;20448;-57
2023/08/06 04:00:27;;;;;;;9.13;7.70;;;14.10;99.90;;;;;;5097131;28;20125;-57
2023/08/06 04:02:53;;;;;;;8.55;6.40;;;14.10;99.90;;;;;;5096456;28;20054;-57
2023/08/06 04:05:19;;;;;;;8.68;6.97;;;14.10;99.90;;;;;;5094008;28;20451;-56
2023/08/06 04:07:44;;;;;;;7.47;6.38;;;14.10;99.90;;;;;;5083678;28;20250;-57
2023/08/06 04:10:10;;;;;;;9.57;6.80;;;14.10;99.90;;;;;;5100492;28;20482;-57
2023/08/06 04:12:39;;;;;;;8.77;6.80;;;14.10;99.90;;;;;;5069322;28;20059;-58
2023/08/06 04:15:05;;;;;;;7.82;6.57;;;14.10;99.90;;;;;;5094258;28;20096;-59
2023/08/06 04:17:31;;;;;;;7.50;6.55;;;14.10;99.90;;;;;;5075337;28;20057;-58
2023/08/06 04:20:00;;;;;;;7.25;6.53;;;14.10;99.90;;;;;;5095556;28;20058;-58
2023/08/06 04:22:26;;;;;;;6.72;6.00;;;14.10;99.90;;;;;;5074974;28;20048;-58
2023/08/06 04:24:51;;;;;;;9.38;6.18;;;14.10;99.90;;;;;;5080067;28;20058;-58
2023/08/06 04:27:18;;;;;;;8.30;6.05;;;14.00;99.90;;;;;;5099138;28;20142;-57
2023/08/06 04:29:44;;;;;;;8.27;6.40;;;14.00;99.90;;;;;;5079958;28;20055;-58
2023/08/06 04:32:10;;;;;;;7.15;6.20;;;14.00;99.90;;;;;;5097157;28;20059;-55
2023/08/06 04:34:37;;;;;;;8.65;7.40;;;14.10;99.90;;;;;;5086060;28;20634;-58
2023/08/06 04:37:04;;;;;;;7.18;6.28;;;14.10;99.90;;;;;;5096623;28;20534;-58
2023/08/06 04:39:30;;;;;;;6.80;6.18;;;14.10;99.90;;;;;;5109566;27;20140;-57
2023/08/06 04:41:57;;;;;;;10.05;6.07;;;14.20;99.90;;;;;;5096938;28;20493;-57
2023/08/06 04:44:23;;;;;;;7.43;6.38;;;14.20;99.90;;;;;;5040048;28;1127234;-58
2023/08/06 04:46:49;;;;;;;7.03;6.03;;;14.30;99.90;;;;;;5079643;28;20057;-58
2023/08/06 04:49:14;;;;;;;10.70;7.82;;;14.30;99.90;;;;;;5085065;28;20051;-57
2023/08/06 04:51:40;;;;;;;7.13;6.43;;;14.40;99.90;;;;;;5092598;28;20106;-58
2023/08/06 04:54:06;;;;;;;8.52;7.38;;;14.40;99.90;;;;;;5075520;28;20509;-58
2023/08/06 04:56:32;;;;;;;8.57;6.40;;;14.40;99.90;;;;;;5061842;28;20787;-58
2023/08/06 04:58:58;;;;;;;7.72;6.97;;;14.50;99.90;;;;;;5098774;28;20124;-58
2023/08/06 05:01:24;;;;;;;9.20;8.15;;;14.50;99.90;;;;;;5092288;28;20056;-58
2023/08/06 05:03:50;;;;;;;10.32;7.07;;;15.20;99.90;;;;;;5085178;28;20524;-58
2023/08/06 05:06:16;;;;;;;10.50;6.70;;;14.50;99.90;;;;;;5067275;28;20199;-58
2023/08/06 05:08:41;;;;;;;9.10;6.97;;;14.60;99.90;;;;;;5085744;28;20520;-57
2023/08/06 05:11:11;;;;;;;9.10;7.28;;;14.60;99.90;;;;;;5095200;28;20059;-58
2023/08/06 05:13:36;;;;;;;7.65;6.25;;;14.60;99.90;;;;;;5085659;28;20055;-58
2023/08/06 05:16:02;;;;;;;10.07;7.97;;;14.60;99.90;;;;;;5089031;28;20532;-58
2023/08/06 05:18:28;;;;;;;7.57;6.70;;;14.70;99.90;;;;;;5081895;28;20462;-58
2023/08/06 05:20:54;;;;;;;8.70;6.65;;;14.70;99.90;;;;;;5103049;28;20679;-58
2023/08/06 05:23:20;;;;;;;8.88;7.72;;;14.80;99.90;;;;;;5092145;28;20524;-57
2023/08/06 05:25:46;;;;;;;8.40;6.80;;;14.80;99.90;;;;;;5094097;28;20142;-57
2023/08/06 05:28:11;;;;;;;8.40;7.53;;;14.70;99.90;;;;;;5093285;28;20088;-57
2023/08/06 05:30:41;;;;;;;12.38;6.05;;;14.80;99.90;;;;;;5058249;28;20932;-57
2023/08/06 05:33:10;;;;;;;9.95;6.93;;;14.90;99.90;;;;;;5102653;28;20417;-57
2023/08/06 05:35:36;;;;;;;9.35;6.70;;;14.90;99.90;;;;;;5092246;27;20134;-58
2023/08/06 05:38:01;;;;;;;5.60;5.05;;;15.00;99.90;;;;;;5096678;27;20063;-57
2023/08/06 05:40:27;;;;;;;7.88;7.07;;;15.10;99.90;;;;;;5077130;28;20070;-58
2023/08/06 05:42:56;;;;;;;9.75;6.70;;;15.20;99.90;;;;;;5082144;28;20417;-58
2023/08/06 05:45:22;;;;;;;8.18;7.30;;;15.30;99.90;;;;;;5099944;27;20067;-57
2023/08/06 05:47:50;;;;;;;8.57;7.03;;;15.40;99.90;;;;;;5089545;27;20056;-58
2023/08/06 05:50:16;;;;;;;6.97;6.30;;;15.60;99.90;;;;;;5048731;28;20055;-57
2023/08/06 05:52:42;;;;;;;8.45;6.88;;;15.60;99.90;;;;;;5089107;28;20075;-64
2023/08/06 05:55:11;;;;;;;10.07;7.50;;;15.60;99.90;;;;;;5094302;28;20807;-59
2023/08/06 05:57:36;;;;;;;9.68;7.30;;;15.80;99.90;;;;;;5073206;28;20060;-58
2023/08/06 06:00:06;;;;;;;8.70;6.90;;;15.90;99.90;;;;;;5097574;28;20062;-61
2023/08/06 06:02:31;;;;;;;9.23;6.28;;;16.00;99.90;;;;;;5056248;28;20104;-63
2023/08/06 06:04:57;;;;;;;8.55;6.75;;;16.10;99.90;;;;;;5101834;28;20147;-60
2023/08/06 06:07:23;;;;;;;7.68;6.45;;;16.20;99.90;;;;;;5079992;28;20479;-61
2023/08/06 06:09:48;;;;;;;7.70;6.30;;;16.20;99.90;;;;;;5099468;28;20043;-60
2023/08/06 06:12:14;;;;;;;8.32;6.30;;;16.30;99.90;;;;;;5086448;28;20055;-60
2023/08/06 06:14:40;;;;;;;8.77;6.85;;;16.40;99.90;;;;;;5097214;28;20055;-59
2023/08/06 06:17:05;;;;;;;6.72;5.88;;;16.50;99.90;;;;;;5079986;28;20087;-63
2023/08/06 06:19:31;;;;;;;7.50;6.43;;;16.60;99.90;;;;;;5077114;28;20091;-58
2023/08/06 06:21:57;;;;;;;9.38;6.78;;;16.80;99.90;;;;;;5068170;28;20052;-57
2023/08/06 06:24:23;;;;;;;12.68;6.00;;;16.90;99.90;;;;;;5064434;28;20056;-57
2023/08/06 06:26:49;;;;;;;7.88;6.03;;;16.90;99.90;;;;;;5094743;28;20071;-58
2023/08/06 06:29:14;;;;;;;6.78;5.93;;;17.10;99.90;;;;;;5079384;28;20600;-57
2023/08/06 06:31:40;;;;;;;6.38;5.78;;;17.20;99.90;;;;;;5095511;28;20079;-57
2023/08/06 06:34:06;;;;;;;6.75;6.15;;;17.30;99.90;;;;;;5096288;28;20073;-58
2023/08/06 06:36:31;;;;;;;9.70;6.07;;;17.50;99.90;;;;;;5094077;28;20820;-58
2023/08/06 06:38:57;;;;;;;7.43;5.07;;;17.50;99.90;;;;;;5087960;28;20052;-59
2023/08/06 06:41:23;;;;;;;5.15;4.65;;;17.50;99.90;;;;;;5088128;28;20616;-58
2023/08/06 06:43:49;;;;;;;6.20;4.40;;;17.60;99.90;;;;;;5085285;28;20058;-58
2023/08/06 06:46:15;;;;;;;6.60;4.80;;;17.70;99.90;;;;;;5096593;28;20052;-58
2023/08/06 06:48:40;;;;;;;4.47;4.07;;;17.80;99.90;;;;;;5097102;28;20819;-58
2023/08/06 06:51:06;;;;;;;7.45;4.78;;;17.80;99.90;;;;;;5088080;28;20054;-58
2023/08/06 06:53:32;;;;;;;6.43;4.68;;;18.00;99.90;;;;;;5078007;28;20063;-58
2023/08/06 06:56:05;;;;;;;5.75;5.25;;;18.00;99.90;;;;;;5084275;28;20051;-58
2023/08/06 06:58:31;;;;;;;5.20;4.70;;;18.30;99.90;;;;;;5071978;28;21055;-58
2023/08/06 07:00:57;;;;;;;6.20;4.65;;;18.30;99.90;;;;;;5080927;28;20494;-58
2023/08/06 07:03:23;;;;;;;9.45;5.18;;;18.40;99.90;;;;;;5077586;28;20052;-57
2023/08/06 07:05:49;;;;;;;5.10;4.60;;;18.70;99.90;;;;;;5089174;28;20062;-58
2023/08/06 07:08:15;;;;;;;6.10;4.80;;;18.60;99.90;;;;;;5082687;28;20049;-57
2023/08/06 07:10:42;;;;;;;7.20;4.78;;;18.70;99.90;;;;;;5091405;28;20049;-58
2023/08/06 07:13:12;;;;;;;7.57;4.30;;;18.70;99.90;;;;;;5083329;28;20052;-57
2023/08/06 07:15:37;;;;;;;6.13;4.63;;;18.90;99.90;;;;;;5098134;28;20063;-58
2023/08/06 07:18:03;;;;;;;4.72;4.22;;;19.20;99.90;;;;;;5092144;28;20052;-58
2023/08/06 07:20:31;;;;;;;7.53;5.25;;;19.30;99.90;;;;;;5095153;28;20578;-58
2023/08/06 07:22:58;;;;;;;5.15;4.20;;;19.30;99.90;;;;;;5053300;28;20053;-58
2023/08/06 07:25:24;;;;;;;5.20;4.57;;;19.40;99.90;;;;;;5075798;28;20083;-58
2023/08/06 07:27:49;;;;;;;4.72;4.30;;;19.50;99.90;;;;;;5098477;28;20138;-58
2023/08/06 07:30:15;;;;;;;5.65;4.15;;;19.30;99.90;;;;;;5078049;28;20066;-57
2023/08/06 07:32:41;;;;;;;4.85;4.35;;;19.40;99.90;;;;;;5099769;28;20051;-58
2023/08/06 07:35:12;;;;;;;4.95;3.75;;;19.60;99.90;;;;;;5092913;28;20112;-58
2023/08/06 07:37:38;;;;;;;7.35;5.03;;;19.70;99.90;;;;;;5087978;27;20053;-63
2023/08/06 07:40:05;;;;;;;4.97;4.43;;;19.90;99.90;;;;;;5073964;28;20056;-59
2023/08/06 07:42:31;;;;;;;4.13;3.45;;;19.80;99.90;;;;;;5083846;28;20806;-61
2023/08/06 07:44:58;;;;;;;5.55;4.45;;;19.90;99.90;;;;;;5073741;28;20047;-60
2023/08/06 07:47:24;;;;;;;4.43;3.55;;;20.10;99.90;;;;;;5085336;28;20052;-62
2023/08/06 07:49:53;;;;;;;4.65;4.10;;;20.30;99.90;;;;;;5082781;28;20989;-62
2023/08/06 07:52:18;;;;;;;4.90;4.30;;;20.30;99.90;;;;;;5071654;28;20138;-62
2023/08/06 07:54:44;;;;;;;4.20;3.90;;;20.40;99.90;;;;;;5094213;28;20063;-63
2023/08/06 07:57:11;;;;;;;6.05;3.80;;;20.50;99.90;;;;;;5085693;28;21659;-61
2023/08/06 07:59:36;;;;;;;5.40;4.90;;;20.50;99.90;;;;;;5072733;28;20174;-59
2023/08/06 08:02:02;;;;;;;4.43;3.80;;;20.10;99.90;;;;;;5074231;28;20649;-58
2023/08/06 08:04:28;;;;;;;6.15;4.22;;;20.20;99.90;;;;;;5085143;27;20056;-61
2023/08/06 08:06:54;;;;;;;4.53;4.13;;;20.20;99.90;;;;;;5089700;27;20836;-58
2023/08/06 08:09:19;;;;;;;6.72;4.63;;;20.20;99.90;;;;;;5097506;28;20088;-58
2023/08/06 08:11:47;;;;;;;5.90;4.53;;;20.30;99.90;;;;;;5066957;28;20573;-58
2023/08/06 08:14:15;;;;;;;5.97;4.63;;;20.10;99.90;;;;;;5097724;28;20055;-58
2023/08/06 08:16:41;;;;;;;5.30;4.82;;;20.50;99.90;;;;;;5070486;28;20052;-60
2023/08/06 08:19:11;;;;;;;5.82;4.30;;;20.80;99.90;;;;;;5089996;27;20044;-60
2023/08/06 08:21:36;;;;;;;3.72;3.42;;;20.60;99.90;;;;;;5094998;28;20063;-61
2023/08/06 08:24:04;;;;;;;5.28;4.65;;;20.70;99.90;;;;;;5106581;27;20508;-58
2023/08/06 08:26:30;;;;;;;7.05;5.10;;;21.40;99.90;;;;;;5088228;27;20116;-63
2023/08/06 08:28:56;;;;;;;4.68;4.13;;;21.40;99.90;;;;;;5086500;28;20056;-61
2023/08/06 08:31:22;;;;;;;4.13;3.58;;;21.00;99.90;;;;;;5040401;28;20087;-58
2023/08/06 08:33:48;;;;;;;4.25;3.78;;;21.80;99.90;;;;;;5085060;28;20139;-58
2023/08/06 08:36:14;;;;;;;4.75;4.25;;;22.20;99.90;;;;;;5086112;28;20095;-58
2023/08/06 08:38:39;;;;;;;5.75;3.60;;;22.10;99.90;;;;;;5091735;28;20040;-58
2023/08/06 08:41:06;;;;;;;3.40;3.10;;;21.50;99.90;;;;;;5093916;28;20079;-58
2023/08/06 08:43:32;;;;;;;3.33;3.03;;;21.60;99.90;;;;;;5089444;28;20056;-58
2023/08/06 08:45:59;;;;;;;3.00;2.80;;;21.90;99.90;;;;;;5088650;28;20503;-58
2023/08/06 08:48:26;;;;;;;3.50;3.20;;;22.30;99.90;;;;;;5086712;28;20513;-59
2023/08/06 08:50:52;;;;;;;3.30;2.40;;;22.50;99.90;;;;;;5096055;28;20098;-59
2023/08/06 08:53:20;;;;;;;2.92;2.63;;;22.60;99.90;;;;;;5077348;28;20439;-58
2023/08/06 08:55:48;;;;;;;5.55;2.30;;;22.90;99.90;;;;;;5093564;28;20087;-58
2023/08/06 08:58:14;;;;;;;2.63;2.42;;;23.20;99.90;;;;;;5086098;27;20488;-58
2023/08/06 09:00:45;;;;;;;3.72;1.85;;;23.40;99.90;;;;;;5039371;28;1108888;-59
2023/08/06 09:03:11;;;;;;;2.58;1.85;;;23.80;99.90;;;;;;5105925;27;20055;-57
2023/08/06 09:05:43;;;;;;;2.83;1.98;;;23.80;99.90;;;;;;5083059;28;21235;-66
2023/08/06 09:08:16;;;;;;;2.67;2.40;;;23.70;99.90;;;;;;5081457;28;20063;-63
2023/08/06 09:10:43;;;;;;;4.78;2.05;;;23.40;99.90;;;;;;5097122;28;20047;-68
2023/08/06 09:13:12;;;;;;;2.60;2.17;;;24.70;99.90;;;;;;5092021;28;20056;-65
2023/08/06 09:15:38;;;;;;;2.42;1.98;;;25.00;99.90;;;;;;5100615;27;20063;-59
2023/08/06 09:18:11;;;;;;;2.92;1.77;;;25.20;99.90;;;;;;5074785;27;20059;-59
2023/08/06 09:20:38;;;;;;;3.65;2.25;;;25.40;99.90;;;;;;5097272;27;20205;-59
2023/08/06 09:23:10;;;;;;;4.28;2.00;;;25.60;99.90;;;;;;5090408;27;20078;-60
2023/08/06 09:25:40;;;;;;;2.60;2.15;;;25.70;99.90;;;;;;5080864;28;20056;-58
2023/08/06 09:28:06;;;;;;;3.58;1.80;;;25.40;99.90;;;;;;5092871;28;20059;-58
2023/08/06 09:30:37;;;;;;;3.45;1.80;;;25.20;99.90;;;;;;5083987;27;20055;-59
2023/08/06 09:33:03;;;;;;;2.30;1.58;;;25.40;99.90;;;;;;5079361;27;20102;-59
2023/08/06 09:35:32;;;;;;;1.55;1.33;;;25.70;99.90;;;;;;5084548;28;20154;-59
2023/08/06 09:38:11;;;;;;;1.42;1.25;;;25.20;99.90;;;;;;5061869;28;20398;-59
2023/08/06 09:40:38;;;;;;;1.40;1.30;;;25.50;99.90;;;;;;5070433;28;20557;-63
2023/08/06 09:43:05;;;;;;;2.22;1.42;;;25.40;99.90;;;;;;5056842;28;20133;-62
2023/08/06 09:45:36;;;;;;;2.17;1.67;;;25.80;99.90;;;;;;5067814;28;20059;-62
2023/08/06 09:48:12;;;;;;;2.95;1.60;;;26.00;99.90;;;;;;5102297;27;20088;-59
2023/08/06 09:50:39;;;;;;;1.65;1.30;;;25.90;99.90;;;;;;5085772;27;21474;-58
2023/08/06 09:53:06;;;;;;;2.47;1.48;;;26.40;99.90;;;;;;5077921;28;20056;-60
2023/08/06 09:55:33;;;;;;;1.65;1.23;;;26.50;99.90;;;;;;5075923;28;20245;-60
2023/08/06 09:57:59;;;;;;;1.42;1.33;;;26.80;99.90;;;;;;5087298;28;20062;-59
2023/08/06 10:00:26;;;;;;;1.45;1.35;;;26.90;99.90;;;;;;5080364;28;20048;-59
2023/08/06 10:02:55;;;;;;;3.20;0.95;;;26.70;99.90;;;;;;5089369;28;20523;-58
2023/08/06 10:05:22;;;;;;;1.40;1.30;;;26.00;99.90;;;;;;5078509;28;20059;-59
2023/08/06 10:07:50;;;;;;;5.00;1.40;;;26.10;99.90;;;;;;5087542;27;20080;-58
2023/08/06 10:10:17;;;;;;;1.45;1.25;;;27.10;99.90;;;;;;5086497;28;20059;-59
2023/08/06 10:12:50;;;;;;;1.30;1.20;;;27.10;99.90;;;;;;5059789;28;20059;-58
2023/08/06 10:15:23;;;;;;;1.10;1.00;;;26.90;99.90;;;;;;5088766;28;20066;-56
2023/08/06 10:17:52;;;;;;;2.50;1.20;;;26.40;99.90;;;;;;5074601;28;20880;-58
2023/08/06 10:20:21;;;;;;;1.92;1.20;;;26.40;99.90;;;;;;5090185;27;20516;-58
2023/08/06 10:23:00;;;;;;;2.00;1.25;;;26.50;99.90;;;;;;5090135;28;20081;-58
2023/08/06 10:25:30;;;;;;;2.35;1.20;;;27.20;99.90;;;;;;5093539;28;20070;-57
2023/08/06 10:27:56;;;;;;;1.38;1.27;;;27.80;99.90;;;;;;5095161;27;20101;-58
2023/08/06 10:30:30;;;;;;;2.97;1.15;;;26.50;99.90;;;;;;5054427;27;20056;-59
2023/08/06 10:32:57;;;;;;;1.38;1.27;;;27.50;99.90;;;;;;5092369;28;20087;-58
2023/08/06 10:35:43;;;;;;;2.67;1.25;;;27.70;99.90;;;;;;5083824;28;20062;-58
2023/08/06 10:38:15;;;;;;;2.45;1.67;;;25.60;99.90;;;;;;5079338;28;20054;-58
2023/08/06 10:40:50;;;;;;;1.45;1.05;;;25.40;99.90;;;;;;5089842;28;20109;-60
2023/08/06 10:43:34;;;;;;;1.17;0.98;;;25.60;99.90;;;;;;5083023;28;20047;-58
2023/08/06 10:46:04;;;;;;;1.58;1.15;;;25.00;99.90;;;;;;5079360;28;20056;-58
2023/08/06 10:48:35;;;;;;;1.73;1.25;;;25.20;99.90;;;;;;5095043;28;20056;-59
2023/08/06 10:51:02;;;;;;;1.50;1.40;;;25.30;99.90;;;;;;5058536;28;20057;-59
2023/08/06 10:53:28;;;;;;;1.20;1.10;;;24.90;99.90;;;;;;5077501;28;20063;-60
2023/08/06 10:55:53;;;;;;;2.13;1.40;;;24.60;99.90;;;;;;5080362;28;20578;-59
2023/08/06 10:58:19;;;;;;;1.83;1.27;;;25.10;99.90;;;;;;5080267;28;20805;-59
2023/08/06 11:00:46;;;;;;;1.83;1.10;;;26.10;99.90;;;;;;5055676;28;20098;-59
2023/08/06 11:03:11;;;;;;;1.40;1.30;;;25.90;99.90;;;;;;5090075;28;20066;-61
2023/08/06 11:05:38;;;;;;;1.65;1.40;;;25.40;99.90;;;;;;5084258;28;20044;-59
2023/08/06 11:08:04;;;;;;;1.20;1.10;;;26.40;99.90;;;;;;5069982;28;20048;-59
2023/08/06 11:10:32;;;;;;;1.38;1.27;;;26.40;99.90;;;;;;5063160;28;20098;-58
2023/08/06 11:13:02;;;;;;;1.70;1.17;;;26.30;99.90;;;;;;5089458;28;20062;-61
2023/08/06 11:15:28;;;;;;;1.60;1.50;;;26.60;99.90;;;;;;5086013;28;20059;-62
2023/08/06 11:17:54;;;;;;;1.40;1.30;;;26.50;99.90;;;;;;5089420;28;20526;-62
2023/08/06 11:20:22;;;;;;;1.45;1.10;;;26.80;99.90;;;;;;5094970;28;20060;-61
2023/08/06 11:22:47;;;;;;;1.75;1.38;;;26.60;99.90;;;;;;5096923;28;20052;-59
2023/08/06 11:25:13;;;;;;;1.17;1.08;;;27.50;99.90;;;;;;5088124;28;20078;-59
2023/08/06 11:27:39;;;;;;;1.40;1.30;;;27.30;99.90;;;;;;5084569;28;20052;-58
2023/08/06 11:30:05;;;;;;;2.10;1.08;;;27.00;99.90;;;;;;5095043;28;20717;-59
2023/08/06 11:32:32;;;;;;;1.20;1.10;;;28.40;99.90;;;;;;5070796;28;20433;-59
2023/08/06 11:34:58;;;;;;;1.63;1.20;;;30.10;99.90;;;;;;5089819;28;20060;-59
2023/08/06 11:37:25;;;;;;;1.67;1.13;;;31.90;99.90;;;;;;5091648;28;20052;-59
2023/08/06 11:39:51;;;;;;;7.72;1.83;;;31.00;99.90;;;;;;5079859;28;20067;-60
2023/08/06 11:42:17;;;;;;;2.33;1.52;;;30.80;99.90;;;;;;5083773;27;20069;-64
2023/08/06 11:44:46;;;;;;;0.80;0.75;;;32.50;99.90;;;;;;5091221;28;20056;-68
2023/08/06 11:47:20;;;;;;;1.20;1.13;;;34.30;99.60;;;;;;5088936;27;20048;-59
2023/08/06 11:49:49;;;;;;;0.90;0.90;;;34.80;96.90;;;;;;5077068;28;20052;-62
2023/08/06 11:52:23;;;;;;;1.00;0.90;;;34.50;96.40;;;;;;5062022;28;20518;-58
2023/08/06 11:57:34;;;;;;;1.75;1.00;;;33.90;92.80;;;;;;5089918;28;20070;-60
2023/08/06 12:00:04;;;;;;;1.17;1.05;;;35.60;96.40;;;;;;5078307;28;20148;-61
2023/08/06 12:02:37;;;;;;;0.93;0.90;;;34.90;94.30;;;;;;5097721;28;20764;-62
2023/08/06 12:07:42;;;;;;;1.55;1.00;;;34.90;94.60;;;;;;5088876;28;20063;-67
2023/08/06 12:10:12;;;;;;;1.67;1.17;;;37.30;94.80;;;;;;5093854;27;20138;-64
2023/08/06 12:12:39;;;;;;;1.75;1.13;;;35.30;93.10;;;;;;5109035;27;20071;-60
2023/08/06 12:15:06;;;;;;;2.10;1.30;;;35.50;93.80;;;;;;5077509;27;20401;-59
2023/08/06 12:17:32;;;;;;;2.15;1.33;;;36.80;94.30;;;;;;5074986;27;20114;-61
2023/08/06 12:19:58;;;;;;;4.18;1.10;;;36.10;93.20;;;;;;5082320;28;20051;-60
2023/08/06 12:22:24;;;;;;;0.93;0.60;;;37.10;91.90;;;;;;5079251;28;20051;-60
2023/08/06 12:24:50;;;;;;;1.90;1.38;;;36.40;92.70;;;;;;5076160;28;20957;-60
2023/08/06 12:27:18;;;;;;;2.50;1.30;;;38.50;92.40;;;;;;5085577;27;20059;-61
2023/08/06 12:29:47;;;;;;;1.95;1.00;;;36.40;90.50;;;;;;5089425;28;20364;-61
2023/08/06 12:32:14;;;;;;;2.15;1.50;;;38.80;91.40;;;;;;5087355;28;20070;-60
2023/08/06 12:34:40;;;;;;;1.42;1.17;;;35.70;90.70;;;;;;5085448;28;20087;-60
2023/08/06 12:39:37;;;;;;;1.48;1.20;;;36.60;88.00;;;;;;5073772;27;20786;-60
2023/08/06 12:42:04;;;;;;;1.38;0.88;;;38.90;90.80;;;;;;5072724;27;20179;-59
2023/08/06 12:44:31;;;;;;;1.40;1.20;;;37.60;90.50;;;;;;5088102;27;21374;-60
2023/08/06 12:46:57;;;;;;;0.93;0.93;;;36.30;90.30;;;;;;5090580;27;20060;-59
2023/08/06 12:49:24;;;;;;;1.30;1.17;;;35.00;90.40;;;;;;5081704;27;20059;-60
2023/08/06 12:51:50;;;;;;;2.22;1.00;;;35.40;90.90;;;;;;5087666;27;20055;-59
2023/08/06 12:54:20;;;;;;;1.30;0.95;;;36.90;91.30;;;;;;5084024;27;20068;-60
2023/08/06 12:56:47;;;;;;;2.35;0.95;;;36.90;91.10;;;;;;5069667;28;20138;-59
2023/08/06 12:59:15;;;;;;;2.78;1.40;;;36.90;91.10;;;;;;5093543;27;20055;-58